sensor_id;sensor_type;location;lat;lon;timestamp;P1;durP1;ratioP1;P2;durP2;ratioP2
65665;SDS011;52365;47.464;18.976;2023-05-10T00:00:17;4.40;;;2.60;;
65665;SDS011;52365;47.464;18.976;2023-05-10T00:00:38;3.50;;;2.50;;
65665;SDS011;52365;47.464;18.976;2023-05-10T00:01:00;3.80;;;2.78;;
65665;SDS011;52365;47.464;18.976;2023-05-10T00:01:21;3.47;;;2.58;;
65665;SDS011;52365;47.464;18.976;2023-05-10T00:01:42;3.15;;;2.37;;
65665;SDS011;52365;47.464;18.976;2023-05-10T00:02:03;2.60;;;2.20;;
65665;SDS011;52365;47.464;18.976;2023-05-10T00:02:24;3.78;;;2.40;;
65665;SDS011;52365;47.464;18.976;2023-05-10T00:02:40;4.12;;;2.67;;
65665;SDS011;52365;47.464;18.976;2023-05-10T00:02:56;4.30;;;2.83;;
65665;SDS011;52365;47.464;18.976;2023-05-10T00:03:17;5.22;;;2.60;;
65665;SDS011;52365;47.464;18.976;2023-05-10T00:03:38;6.20;;;2.60;;
65665;SDS011;52365;47.464;18.976;2023-05-10T00:04:00;5.18;;;2.58;;
65665;SDS011;52365;47.464;18.976;2023-05-10T00:04:21;4.28;;;2.50;;
65665;SDS011;52365;47.464;18.976;2023-05-10T00:04:42;3.25;;;2.50;;
65665;SDS011;52365;47.464;18.976;2023-05-10T00:05:03;4.20;;;2.53;;
65665;SDS011;52365;47.464;18.976;2023-05-10T00:05:25;3.80;;;2.50;;
65665;SDS011;52365;47.464;18.976;2023-05-10T00:05:46;3.75;;;2.40;;
65665;SDS011;52365;47.464;18.976;2023-05-10T00:06:07;4.32;;;2.40;;
65665;SDS011;52365;47.464;18.976;2023-05-10T00:06:28;3.72;;;2.33;;
65665;SDS011;52365;47.464;18.976;2023-05-10T00:06:44;3.62;;;2.40;;
65665;SDS011;52365;47.464;18.976;2023-05-10T00:07:05;3.58;;;2.60;;
65665;SDS011;52365;47.464;18.976;2023-05-10T00:07:26;3.67;;;2.50;;
65665;SDS011;52365;47.464;18.976;2023-05-10T00:07:47;4.18;;;2.80;;
65665;SDS011;52365;47.464;18.976;2023-05-10T00:08:03;3.20;;;2.50;;
65665;SDS011;52365;47.464;18.976;2023-05-10T00:08:25;3.62;;;2.60;;
65665;SDS011;52365;47.464;18.976;2023-05-10T00:08:46;4.97;;;2.83;;
65665;SDS011;52365;47.464;18.976;2023-05-10T00:09:07;5.03;;;2.40;;
65665;SDS011;52365;47.464;18.976;2023-05-10T00:09:28;3.55;;;2.50;;
65665;SDS011;52365;47.464;18.976;2023-05-10T00:09:49;4.05;;;2.70;;
65665;SDS011;52365;47.464;18.976;2023-05-10T00:10:10;3.78;;;2.70;;
65665;SDS011;52365;47.464;18.976;2023-05-10T00:10:31;4.32;;;2.60;;
65665;SDS011;52365;47.464;18.976;2023-05-10T00:10:52;4.60;;;2.60;;
65665;SDS011;52365;47.464;18.976;2023-05-10T00:11:08;3.90;;;2.80;;
65665;SDS011;52365;47.464;18.976;2023-05-10T00:11:29;3.92;;;2.90;;
65665;SDS011;52365;47.464;18.976;2023-05-10T00:11:50;3.37;;;2.65;;
65665;SDS011;52365;47.464;18.976;2023-05-10T00:12:11;4.25;;;2.60;;
65665;SDS011;52365;47.464;18.976;2023-05-10T00:12:32;4.32;;;2.78;;
65665;SDS011;52365;47.464;18.976;2023-05-10T00:12:53;4.53;;;2.95;;
65665;SDS011;52365;47.464;18.976;2023-05-10T00:13:14;3.62;;;2.72;;
65665;SDS011;52365;47.464;18.976;2023-05-10T00:13:35;3.72;;;2.80;;
65665;SDS011;52365;47.464;18.976;2023-05-10T00:13:56;3.60;;;2.80;;
65665;SDS011;52365;47.464;18.976;2023-05-10T00:14:17;3.72;;;2.58;;
65665;SDS011;52365;47.464;18.976;2023-05-10T00:14:39;4.70;;;2.62;;
65665;SDS011;52365;47.464;18.976;2023-05-10T00:15:00;5.45;;;3.00;;
65665;SDS011;52365;47.464;18.976;2023-05-10T00:15:21;4.32;;;2.95;;
65665;SDS011;52365;47.464;18.976;2023-05-10T00:15:42;5.15;;;3.00;;
65665;SDS011;52365;47.464;18.976;2023-05-10T00:16:03;4.70;;;2.80;;
65665;SDS011;52365;47.464;18.976;2023-05-10T00:16:24;4.55;;;2.80;;
65665;SDS011;52365;47.464;18.976;2023-05-10T00:16:45;4.37;;;2.78;;
65665;SDS011;52365;47.464;18.976;2023-05-10T00:17:06;4.90;;;2.87;;
65665;SDS011;52365;47.464;18.976;2023-05-10T00:17:27;4.37;;;2.97;;
65665;SDS011;52365;47.464;18.976;2023-05-10T00:17:48;3.65;;;2.87;;
65665;SDS011;52365;47.464;18.976;2023-05-10T00:18:10;3.62;;;3.05;;
65665;SDS011;52365;47.464;18.976;2023-05-10T00:18:31;4.45;;;2.95;;
65665;SDS011;52365;47.464;18.976;2023-05-10T00:18:52;4.18;;;2.80;;
65665;SDS011;52365;47.464;18.976;2023-05-10T00:19:13;4.37;;;2.70;;
65665;SDS011;52365;47.464;18.976;2023-05-10T00:19:34;4.12;;;2.90;;
65665;SDS011;52365;47.464;18.976;2023-05-10T00:19:55;4.30;;;2.60;;
65665;SDS011;52365;47.464;18.976;2023-05-10T00:20:16;4.43;;;3.00;;
65665;SDS011;52365;47.464;18.976;2023-05-10T00:20:37;4.65;;;3.20;;
65665;SDS011;52365;47.464;18.976;2023-05-10T00:20:58;5.10;;;2.80;;
65665;SDS011;52365;47.464;18.976;2023-05-10T00:21:20;4.43;;;2.80;;
65665;SDS011;52365;47.464;18.976;2023-05-10T00:21:41;4.95;;;3.10;;
65665;SDS011;52365;47.464;18.976;2023-05-10T00:22:02;4.15;;;3.00;;
65665;SDS011;52365;47.464;18.976;2023-05-10T00:22:23;5.00;;;2.90;;
65665;SDS011;52365;47.464;18.976;2023-05-10T00:22:44;5.07;;;3.12;;
65665;SDS011;52365;47.464;18.976;2023-05-10T00:23:05;3.37;;;2.80;;
65665;SDS011;52365;47.464;18.976;2023-05-10T00:23:26;4.78;;;3.20;;
65665;SDS011;52365;47.464;18.976;2023-05-10T00:23:47;4.43;;;3.10;;
65665;SDS011;52365;47.464;18.976;2023-05-10T00:24:08;4.50;;;2.92;;
65665;SDS011;52365;47.464;18.976;2023-05-10T00:24:29;4.78;;;2.92;;
65665;SDS011;52365;47.464;18.976;2023-05-10T00:24:50;4.28;;;3.17;;
65665;SDS011;52365;47.464;18.976;2023-05-10T00:25:11;4.85;;;2.97;;
65665;SDS011;52365;47.464;18.976;2023-05-10T00:25:32;4.97;;;3.12;;
65665;SDS011;52365;47.464;18.976;2023-05-10T00:25:53;4.32;;;3.15;;
65665;SDS011;52365;47.464;18.976;2023-05-10T00:26:14;4.85;;;3.22;;
65665;SDS011;52365;47.464;18.976;2023-05-10T00:26:37;5.35;;;3.30;;
65665;SDS011;52365;47.464;18.976;2023-05-10T00:26:58;5.07;;;3.37;;
65665;SDS011;52365;47.464;18.976;2023-05-10T00:27:19;4.15;;;3.20;;
65665;SDS011;52365;47.464;18.976;2023-05-10T00:27:40;4.65;;;3.25;;
65665;SDS011;52365;47.464;18.976;2023-05-10T00:27:56;4.80;;;3.45;;
65665;SDS011;52365;47.464;18.976;2023-05-10T00:28:17;4.25;;;3.10;;
65665;SDS011;52365;47.464;18.976;2023-05-10T00:28:33;4.32;;;3.17;;
65665;SDS011;52365;47.464;18.976;2023-05-10T00:28:54;4.90;;;3.25;;
65665;SDS011;52365;47.464;18.976;2023-05-10T00:29:15;5.82;;;3.28;;
65665;SDS011;52365;47.464;18.976;2023-05-10T00:29:36;7.78;;;3.10;;
65665;SDS011;52365;47.464;18.976;2023-05-10T00:29:57;5.65;;;3.20;;
65665;SDS011;52365;47.464;18.976;2023-05-10T00:30:18;5.00;;;3.20;;
65665;SDS011;52365;47.464;18.976;2023-05-10T00:30:39;3.92;;;3.00;;
65665;SDS011;52365;47.464;18.976;2023-05-10T00:31:00;4.00;;;3.17;;
65665;SDS011;52365;47.464;18.976;2023-05-10T00:31:21;4.45;;;3.28;;
65665;SDS011;52365;47.464;18.976;2023-05-10T00:31:42;5.62;;;3.50;;
65665;SDS011;52365;47.464;18.976;2023-05-10T00:32:03;6.45;;;3.42;;
65665;SDS011;52365;47.464;18.976;2023-05-10T00:32:20;5.35;;;3.28;;
65665;SDS011;52365;47.464;18.976;2023-05-10T00:32:41;4.70;;;3.15;;
65665;SDS011;52365;47.464;18.976;2023-05-10T00:33:02;4.78;;;3.30;;
65665;SDS011;52365;47.464;18.976;2023-05-10T00:33:23;6.87;;;3.47;;
65665;SDS011;52365;47.464;18.976;2023-05-10T00:33:44;6.53;;;3.50;;
65665;SDS011;52365;47.464;18.976;2023-05-10T00:34:05;5.95;;;3.50;;
65665;SDS011;52365;47.464;18.976;2023-05-10T00:34:26;6.03;;;3.47;;
65665;SDS011;52365;47.464;18.976;2023-05-10T00:34:47;5.85;;;3.30;;
65665;SDS011;52365;47.464;18.976;2023-05-10T00:35:08;4.12;;;3.40;;
65665;SDS011;52365;47.464;18.976;2023-05-10T00:35:30;5.00;;;3.40;;
65665;SDS011;52365;47.464;18.976;2023-05-10T00:35:51;5.20;;;3.35;;
65665;SDS011;52365;47.464;18.976;2023-05-10T00:36:12;5.32;;;3.42;;
65665;SDS011;52365;47.464;18.976;2023-05-10T00:36:28;6.05;;;3.37;;
65665;SDS011;52365;47.464;18.976;2023-05-10T00:36:49;5.75;;;3.50;;
65665;SDS011;52365;47.464;18.976;2023-05-10T00:37:10;5.10;;;3.37;;
65665;SDS011;52365;47.464;18.976;2023-05-10T00:37:26;4.50;;;3.75;;
65665;SDS011;52365;47.464;18.976;2023-05-10T00:37:47;5.40;;;3.75;;
65665;SDS011;52365;47.464;18.976;2023-05-10T00:38:08;4.80;;;3.53;;
65665;SDS011;52365;47.464;18.976;2023-05-10T00:38:29;4.90;;;3.47;;
65665;SDS011;52365;47.464;18.976;2023-05-10T00:38:50;5.45;;;3.40;;
65665;SDS011;52365;47.464;18.976;2023-05-10T00:39:06;5.40;;;3.40;;
65665;SDS011;52365;47.464;18.976;2023-05-10T00:39:27;5.78;;;3.42;;
65665;SDS011;52365;47.464;18.976;2023-05-10T00:39:49;5.57;;;3.40;;
65665;SDS011;52365;47.464;18.976;2023-05-10T00:40:10;4.87;;;3.30;;
65665;SDS011;52365;47.464;18.976;2023-05-10T00:40:31;5.07;;;3.40;;
65665;SDS011;52365;47.464;18.976;2023-05-10T00:40:52;5.32;;;3.42;;
65665;SDS011;52365;47.464;18.976;2023-05-10T00:41:14;5.00;;;3.50;;
65665;SDS011;52365;47.464;18.976;2023-05-10T00:41:35;4.85;;;3.50;;
65665;SDS011;52365;47.464;18.976;2023-05-10T00:41:57;5.07;;;3.60;;
65665;SDS011;52365;47.464;18.976;2023-05-10T00:42:18;4.87;;;3.70;;
65665;SDS011;52365;47.464;18.976;2023-05-10T00:42:39;5.62;;;3.50;;
65665;SDS011;52365;47.464;18.976;2023-05-10T00:42:59;5.12;;;3.25;;
65665;SDS011;52365;47.464;18.976;2023-05-10T00:43:21;4.97;;;3.10;;
65665;SDS011;52365;47.464;18.976;2023-05-10T00:43:42;4.68;;;3.28;;
65665;SDS011;52365;47.464;18.976;2023-05-10T00:44:04;5.68;;;3.58;;
65665;SDS011;52365;47.464;18.976;2023-05-10T00:44:25;7.55;;;3.45;;
65665;SDS011;52365;47.464;18.976;2023-05-10T00:44:46;5.60;;;3.58;;
65665;SDS011;52365;47.464;18.976;2023-05-10T00:45:07;5.10;;;3.67;;
65665;SDS011;52365;47.464;18.976;2023-05-10T00:45:23;5.62;;;3.50;;
65665;SDS011;52365;47.464;18.976;2023-05-10T00:45:45;5.12;;;3.42;;
65665;SDS011;52365;47.464;18.976;2023-05-10T00:46:01;5.53;;;3.55;;
65665;SDS011;52365;47.464;18.976;2023-05-10T00:46:22;5.00;;;3.70;;
65665;SDS011;52365;47.464;18.976;2023-05-10T00:46:44;5.70;;;3.60;;
65665;SDS011;52365;47.464;18.976;2023-05-10T00:47:05;6.47;;;3.70;;
65665;SDS011;52365;47.464;18.976;2023-05-10T00:47:27;5.05;;;3.78;;
65665;SDS011;52365;47.464;18.976;2023-05-10T00:47:48;5.00;;;3.75;;
65665;SDS011;52365;47.464;18.976;2023-05-10T00:48:09;4.85;;;3.60;;
65665;SDS011;52365;47.464;18.976;2023-05-10T00:48:25;5.82;;;3.50;;
65665;SDS011;52365;47.464;18.976;2023-05-10T00:48:42;5.60;;;3.53;;
65665;SDS011;52365;47.464;18.976;2023-05-10T00:49:05;4.82;;;3.50;;
65665;SDS011;52365;47.464;18.976;2023-05-10T00:49:26;5.70;;;3.65;;
65665;SDS011;52365;47.464;18.976;2023-05-10T00:49:48;4.68;;;3.40;;
65665;SDS011;52365;47.464;18.976;2023-05-10T00:50:09;5.30;;;3.45;;
65665;SDS011;52365;47.464;18.976;2023-05-10T00:50:30;5.37;;;3.67;;
65665;SDS011;52365;47.464;18.976;2023-05-10T00:50:53;5.90;;;3.60;;
65665;SDS011;52365;47.464;18.976;2023-05-10T00:51:14;5.22;;;3.70;;
65665;SDS011;52365;47.464;18.976;2023-05-10T00:51:35;5.03;;;3.78;;
65665;SDS011;52365;47.464;18.976;2023-05-10T00:51:57;5.03;;;3.58;;
65665;SDS011;52365;47.464;18.976;2023-05-10T00:52:18;5.57;;;3.70;;
65665;SDS011;52365;47.464;18.976;2023-05-10T00:52:39;4.72;;;3.78;;
65665;SDS011;52365;47.464;18.976;2023-05-10T00:53:00;4.50;;;3.55;;
65665;SDS011;52365;47.464;18.976;2023-05-10T00:53:23;4.82;;;3.50;;
65665;SDS011;52365;47.464;18.976;2023-05-10T00:53:45;5.37;;;3.70;;
65665;SDS011;52365;47.464;18.976;2023-05-10T00:54:01;5.00;;;3.72;;
65665;SDS011;52365;47.464;18.976;2023-05-10T00:54:23;5.75;;;3.75;;
65665;SDS011;52365;47.464;18.976;2023-05-10T00:54:44;5.20;;;3.80;;
65665;SDS011;52365;47.464;18.976;2023-05-10T00:55:05;4.57;;;3.53;;
65665;SDS011;52365;47.464;18.976;2023-05-10T00:55:27;5.68;;;3.45;;
65665;SDS011;52365;47.464;18.976;2023-05-10T00:55:43;4.55;;;3.65;;
65665;SDS011;52365;47.464;18.976;2023-05-10T00:56:05;5.47;;;3.40;;
65665;SDS011;52365;47.464;18.976;2023-05-10T00:56:26;4.62;;;3.20;;
65665;SDS011;52365;47.464;18.976;2023-05-10T00:56:50;4.93;;;3.50;;
65665;SDS011;52365;47.464;18.976;2023-05-10T00:57:12;4.95;;;3.42;;
65665;SDS011;52365;47.464;18.976;2023-05-10T00:57:33;4.68;;;3.62;;
65665;SDS011;52365;47.464;18.976;2023-05-10T00:57:54;4.47;;;3.67;;
65665;SDS011;52365;47.464;18.976;2023-05-10T00:58:15;5.03;;;3.67;;
65665;SDS011;52365;47.464;18.976;2023-05-10T00:58:36;5.32;;;3.62;;
65665;SDS011;52365;47.464;18.976;2023-05-10T00:58:57;5.18;;;3.83;;
65665;SDS011;52365;47.464;18.976;2023-05-10T00:59:18;5.30;;;3.75;;
65665;SDS011;52365;47.464;18.976;2023-05-10T00:59:40;4.87;;;3.72;;
65665;SDS011;52365;47.464;18.976;2023-05-10T01:00:01;7.22;;;3.80;;
65665;SDS011;52365;47.464;18.976;2023-05-10T01:00:23;6.57;;;3.85;;
65665;SDS011;52365;47.464;18.976;2023-05-10T01:00:44;4.78;;;3.70;;
65665;SDS011;52365;47.464;18.976;2023-05-10T01:01:07;4.82;;;3.80;;
65665;SDS011;52365;47.464;18.976;2023-05-10T01:01:29;5.47;;;3.90;;
65665;SDS011;52365;47.464;18.976;2023-05-10T01:01:51;6.15;;;3.80;;
65665;SDS011;52365;47.464;18.976;2023-05-10T01:02:12;5.12;;;3.70;;
65665;SDS011;52365;47.464;18.976;2023-05-10T01:02:34;5.28;;;3.60;;
65665;SDS011;52365;47.464;18.976;2023-05-10T01:02:50;5.05;;;3.80;;
65665;SDS011;52365;47.464;18.976;2023-05-10T01:03:13;4.87;;;3.70;;
65665;SDS011;52365;47.464;18.976;2023-05-10T01:03:34;5.53;;;3.70;;
65665;SDS011;52365;47.464;18.976;2023-05-10T01:03:56;5.50;;;3.62;;
65665;SDS011;52365;47.464;18.976;2023-05-10T01:04:18;5.15;;;3.30;;
65665;SDS011;52365;47.464;18.976;2023-05-10T01:04:45;5.53;;;3.20;;
65665;SDS011;52365;47.464;18.976;2023-05-10T01:05:02;5.37;;;3.28;;
65665;SDS011;52365;47.464;18.976;2023-05-10T01:05:24;5.22;;;3.30;;
65665;SDS011;52365;47.464;18.976;2023-05-10T01:05:45;5.10;;;3.35;;
65665;SDS011;52365;47.464;18.976;2023-05-10T01:06:06;4.43;;;3.37;;
65665;SDS011;52365;47.464;18.976;2023-05-10T01:06:28;4.95;;;3.40;;
65665;SDS011;52365;47.464;18.976;2023-05-10T01:06:49;5.25;;;3.35;;
65665;SDS011;52365;47.464;18.976;2023-05-10T01:07:10;5.18;;;3.60;;
65665;SDS011;52365;47.464;18.976;2023-05-10T01:07:31;4.32;;;3.30;;
65665;SDS011;52365;47.464;18.976;2023-05-10T01:07:52;4.55;;;3.62;;
65665;SDS011;52365;47.464;18.976;2023-05-10T01:08:13;5.27;;;3.57;;
65665;SDS011;52365;47.464;18.976;2023-05-10T01:08:34;4.87;;;3.53;;
65665;SDS011;52365;47.464;18.976;2023-05-10T01:08:55;4.60;;;3.40;;
65665;SDS011;52365;47.464;18.976;2023-05-10T01:09:12;4.00;;;3.30;;
65665;SDS011;52365;47.464;18.976;2023-05-10T01:09:33;4.40;;;3.30;;
65665;SDS011;52365;47.464;18.976;2023-05-10T01:09:54;6.20;;;3.72;;
65665;SDS011;52365;47.464;18.976;2023-05-10T01:10:16;5.12;;;3.60;;
65665;SDS011;52365;47.464;18.976;2023-05-10T01:10:37;5.78;;;3.62;;
65665;SDS011;52365;47.464;18.976;2023-05-10T01:10:58;6.32;;;3.53;;
65665;SDS011;52365;47.464;18.976;2023-05-10T01:11:19;5.82;;;3.55;;
65665;SDS011;52365;47.464;18.976;2023-05-10T01:11:41;5.43;;;3.80;;
65665;SDS011;52365;47.464;18.976;2023-05-10T01:12:02;4.80;;;3.50;;
65665;SDS011;52365;47.464;18.976;2023-05-10T01:12:24;4.53;;;3.55;;
65665;SDS011;52365;47.464;18.976;2023-05-10T01:12:41;4.60;;;3.45;;
65665;SDS011;52365;47.464;18.976;2023-05-10T01:13:04;4.87;;;3.50;;
65665;SDS011;52365;47.464;18.976;2023-05-10T01:13:29;5.35;;;3.37;;
65665;SDS011;52365;47.464;18.976;2023-05-10T01:13:55;4.85;;;3.65;;
65665;SDS011;52365;47.464;18.976;2023-05-10T01:14:18;5.32;;;3.60;;
65665;SDS011;52365;47.464;18.976;2023-05-10T01:14:40;5.00;;;3.62;;
65665;SDS011;52365;47.464;18.976;2023-05-10T01:15:01;7.80;;;3.60;;
65665;SDS011;52365;47.464;18.976;2023-05-10T01:15:22;5.07;;;3.55;;
65665;SDS011;52365;47.464;18.976;2023-05-10T01:15:44;5.53;;;3.60;;
65665;SDS011;52365;47.464;18.976;2023-05-10T01:16:07;7.15;;;3.72;;
65665;SDS011;52365;47.464;18.976;2023-05-10T01:16:28;5.62;;;3.45;;
65665;SDS011;52365;47.464;18.976;2023-05-10T01:16:52;3.78;;;3.37;;
65665;SDS011;52365;47.464;18.976;2023-05-10T01:17:14;4.60;;;3.65;;
65665;SDS011;52365;47.464;18.976;2023-05-10T01:17:37;4.78;;;3.83;;
65665;SDS011;52365;47.464;18.976;2023-05-10T01:17:59;5.93;;;3.67;;
65665;SDS011;52365;47.464;18.976;2023-05-10T01:18:21;5.25;;;3.70;;
65665;SDS011;52365;47.464;18.976;2023-05-10T01:18:38;6.25;;;3.78;;
65665;SDS011;52365;47.464;18.976;2023-05-10T01:19:01;5.05;;;3.70;;
65665;SDS011;52365;47.464;18.976;2023-05-10T01:19:19;5.45;;;3.80;;
65665;SDS011;52365;47.464;18.976;2023-05-10T01:19:43;5.87;;;3.83;;
65665;SDS011;52365;47.464;18.976;2023-05-10T01:20:04;5.90;;;3.80;;
65665;SDS011;52365;47.464;18.976;2023-05-10T01:20:42;6.00;;;3.85;;
65665;SDS011;52365;47.464;18.976;2023-05-10T01:21:43;5.93;;;3.70;;
65665;SDS011;52365;47.464;18.976;2023-05-10T01:26:19;5.12;;;3.97;;
65665;SDS011;52365;47.464;18.976;2023-05-10T01:30:00;5.57;;;3.83;;
65665;SDS011;52365;47.464;18.976;2023-05-10T01:31:03;5.20;;;3.70;;
65665;SDS011;52365;47.464;18.976;2023-05-10T01:31:39;6.95;;;3.85;;
65665;SDS011;52365;47.464;18.976;2023-05-10T01:33:43;6.15;;;3.60;;
65665;SDS011;52365;47.464;18.976;2023-05-10T01:34:16;4.75;;;3.60;;
65665;SDS011;52365;47.464;18.976;2023-05-10T01:34:54;5.55;;;3.87;;
65665;SDS011;52365;47.464;18.976;2023-05-10T01:35:22;4.85;;;3.67;;
65665;SDS011;52365;47.464;18.976;2023-05-10T01:36:12;6.37;;;3.90;;
65665;SDS011;52365;47.464;18.976;2023-05-10T01:36:58;6.80;;;3.70;;
65665;SDS011;52365;47.464;18.976;2023-05-10T01:39:03;5.57;;;3.70;;
65665;SDS011;52365;47.464;18.976;2023-05-10T01:39:44;5.30;;;3.72;;
65665;SDS011;52365;47.464;18.976;2023-05-10T01:42:47;5.12;;;3.72;;
65665;SDS011;52365;47.464;18.976;2023-05-10T01:43:17;4.85;;;3.60;;
65665;SDS011;52365;47.464;18.976;2023-05-10T01:43:48;5.10;;;3.50;;
65665;SDS011;52365;47.464;18.976;2023-05-10T01:45:24;5.57;;;3.45;;
65665;SDS011;52365;47.464;18.976;2023-05-10T01:46:13;5.00;;;3.72;;
65665;SDS011;52365;47.464;18.976;2023-05-10T01:46:38;7.55;;;3.90;;
65665;SDS011;52365;47.464;18.976;2023-05-10T01:47:07;6.72;;;3.70;;
65665;SDS011;52365;47.464;18.976;2023-05-10T01:47:44;5.55;;;3.87;;
65665;SDS011;52365;47.464;18.976;2023-05-10T01:48:11;5.93;;;4.00;;
65665;SDS011;52365;47.464;18.976;2023-05-10T01:48:34;5.32;;;3.58;;
65665;SDS011;52365;47.464;18.976;2023-05-10T01:48:55;5.00;;;3.72;;
65665;SDS011;52365;47.464;18.976;2023-05-10T01:49:26;6.12;;;3.90;;
65665;SDS011;52365;47.464;18.976;2023-05-10T01:49:52;7.82;;;3.80;;
65665;SDS011;52365;47.464;18.976;2023-05-10T01:50:20;8.27;;;3.72;;
65665;SDS011;52365;47.464;18.976;2023-05-10T01:50:45;5.12;;;3.53;;
65665;SDS011;52365;47.464;18.976;2023-05-10T01:51:08;5.07;;;3.80;;
65665;SDS011;52365;47.464;18.976;2023-05-10T01:51:34;5.57;;;3.70;;
65665;SDS011;52365;47.464;18.976;2023-05-10T01:52:02;5.18;;;3.70;;
65665;SDS011;52365;47.464;18.976;2023-05-10T01:52:32;6.80;;;3.55;;
65665;SDS011;52365;47.464;18.976;2023-05-10T01:52:57;5.28;;;3.78;;
65665;SDS011;52365;47.464;18.976;2023-05-10T01:53:21;5.28;;;3.53;;
65665;SDS011;52365;47.464;18.976;2023-05-10T01:53:44;6.53;;;3.70;;
65665;SDS011;52365;47.464;18.976;2023-05-10T01:54:08;5.72;;;3.60;;
65665;SDS011;52365;47.464;18.976;2023-05-10T01:54:31;6.37;;;3.80;;
65665;SDS011;52365;47.464;18.976;2023-05-10T01:54:55;5.70;;;3.50;;
65665;SDS011;52365;47.464;18.976;2023-05-10T01:55:21;5.68;;;3.60;;
65665;SDS011;52365;47.464;18.976;2023-05-10T01:55:50;4.75;;;3.47;;
65665;SDS011;52365;47.464;18.976;2023-05-10T01:56:14;4.60;;;3.40;;
65665;SDS011;52365;47.464;18.976;2023-05-10T01:56:36;4.87;;;3.50;;
65665;SDS011;52365;47.464;18.976;2023-05-10T01:57:00;5.05;;;3.58;;
65665;SDS011;52365;47.464;18.976;2023-05-10T01:57:21;4.75;;;3.55;;
65665;SDS011;52365;47.464;18.976;2023-05-10T01:57:48;7.62;;;3.67;;
65665;SDS011;52365;47.464;18.976;2023-05-10T01:58:09;6.05;;;3.72;;
65665;SDS011;52365;47.464;18.976;2023-05-10T01:58:32;4.78;;;3.50;;
65665;SDS011;52365;47.464;18.976;2023-05-10T01:58:55;6.57;;;3.67;;
65665;SDS011;52365;47.464;18.976;2023-05-10T01:59:18;7.97;;;3.60;;
65665;SDS011;52365;47.464;18.976;2023-05-10T01:59:40;6.22;;;3.80;;
65665;SDS011;52365;47.464;18.976;2023-05-10T02:00:02;5.80;;;3.70;;
65665;SDS011;52365;47.464;18.976;2023-05-10T02:00:25;5.07;;;3.72;;
65665;SDS011;52365;47.464;18.976;2023-05-10T02:00:44;6.45;;;3.65;;
65665;SDS011;52365;47.464;18.976;2023-05-10T02:01:07;7.15;;;3.53;;
65665;SDS011;52365;47.464;18.976;2023-05-10T02:01:29;6.07;;;3.60;;
65665;SDS011;52365;47.464;18.976;2023-05-10T02:01:51;4.45;;;3.50;;
65665;SDS011;52365;47.464;18.976;2023-05-10T02:02:08;4.93;;;3.50;;
65665;SDS011;52365;47.464;18.976;2023-05-10T02:02:33;4.30;;;3.40;;
65665;SDS011;52365;47.464;18.976;2023-05-10T02:03:04;5.37;;;3.65;;
65665;SDS011;52365;47.464;18.976;2023-05-10T02:03:27;6.62;;;3.60;;
65665;SDS011;52365;47.464;18.976;2023-05-10T02:03:50;5.10;;;3.50;;
65665;SDS011;52365;47.464;18.976;2023-05-10T02:04:07;4.97;;;3.53;;
65665;SDS011;52365;47.464;18.976;2023-05-10T02:04:30;4.80;;;3.35;;
65665;SDS011;52365;47.464;18.976;2023-05-10T02:04:49;4.47;;;3.50;;
65665;SDS011;52365;47.464;18.976;2023-05-10T02:05:12;5.62;;;3.78;;
65665;SDS011;52365;47.464;18.976;2023-05-10T02:05:35;6.10;;;4.00;;
65665;SDS011;52365;47.464;18.976;2023-05-10T02:05:58;5.62;;;3.37;;
65665;SDS011;52365;47.464;18.976;2023-05-10T02:06:19;6.07;;;3.50;;
65665;SDS011;52365;47.464;18.976;2023-05-10T02:06:43;5.05;;;3.50;;
65665;SDS011;52365;47.464;18.976;2023-05-10T02:07:06;4.65;;;3.65;;
65665;SDS011;52365;47.464;18.976;2023-05-10T02:07:29;4.55;;;3.40;;
65665;SDS011;52365;47.464;18.976;2023-05-10T02:07:52;4.93;;;3.35;;
65665;SDS011;52365;47.464;18.976;2023-05-10T02:08:14;5.18;;;3.65;;
65665;SDS011;52365;47.464;18.976;2023-05-10T02:08:36;5.32;;;3.58;;
65665;SDS011;52365;47.464;18.976;2023-05-10T02:08:53;4.87;;;3.53;;
65665;SDS011;52365;47.464;18.976;2023-05-10T02:09:15;5.20;;;3.50;;
65665;SDS011;52365;47.464;18.976;2023-05-10T02:09:38;5.68;;;3.75;;
65665;SDS011;52365;47.464;18.976;2023-05-10T02:09:59;6.10;;;3.50;;
65665;SDS011;52365;47.464;18.976;2023-05-10T02:10:18;8.80;;;3.70;;
65665;SDS011;52365;47.464;18.976;2023-05-10T02:10:40;8.55;;;3.45;;
65665;SDS011;52365;47.464;18.976;2023-05-10T02:11:03;5.80;;;3.47;;
65665;SDS011;52365;47.464;18.976;2023-05-10T02:11:26;4.85;;;3.55;;
65665;SDS011;52365;47.464;18.976;2023-05-10T02:11:48;4.55;;;3.37;;
65665;SDS011;52365;47.464;18.976;2023-05-10T02:12:10;5.68;;;3.60;;
65665;SDS011;52365;47.464;18.976;2023-05-10T02:12:43;5.37;;;3.30;;
65665;SDS011;52365;47.464;18.976;2023-05-10T02:13:07;5.15;;;3.60;;
65665;SDS011;52365;47.464;18.976;2023-05-10T02:13:29;5.15;;;3.60;;
65665;SDS011;52365;47.464;18.976;2023-05-10T02:13:50;6.07;;;3.40;;
65665;SDS011;52365;47.464;18.976;2023-05-10T02:14:13;5.50;;;3.50;;
65665;SDS011;52365;47.464;18.976;2023-05-10T02:14:36;5.30;;;3.50;;
65665;SDS011;52365;47.464;18.976;2023-05-10T02:14:59;4.82;;;3.42;;
65665;SDS011;52365;47.464;18.976;2023-05-10T02:15:23;5.60;;;3.85;;
65665;SDS011;52365;47.464;18.976;2023-05-10T02:15:40;5.93;;;3.85;;
65665;SDS011;52365;47.464;18.976;2023-05-10T02:16:03;4.87;;;3.83;;
65665;SDS011;52365;47.464;18.976;2023-05-10T02:16:26;4.85;;;3.55;;
65665;SDS011;52365;47.464;18.976;2023-05-10T02:16:51;7.62;;;3.55;;
65665;SDS011;52365;47.464;18.976;2023-05-10T02:17:09;6.18;;;3.75;;
65665;SDS011;52365;47.464;18.976;2023-05-10T02:17:31;6.30;;;3.60;;
65665;SDS011;52365;47.464;18.976;2023-05-10T02:17:54;6.40;;;3.70;;
65665;SDS011;52365;47.464;18.976;2023-05-10T02:18:11;4.82;;;3.70;;
65665;SDS011;52365;47.464;18.976;2023-05-10T02:18:34;5.18;;;3.70;;
65665;SDS011;52365;47.464;18.976;2023-05-10T02:18:57;4.78;;;3.80;;
65665;SDS011;52365;47.464;18.976;2023-05-10T02:19:20;5.35;;;3.70;;
65665;SDS011;52365;47.464;18.976;2023-05-10T02:19:42;6.28;;;3.67;;
65665;SDS011;52365;47.464;18.976;2023-05-10T02:20:04;6.07;;;3.70;;
65665;SDS011;52365;47.464;18.976;2023-05-10T02:20:28;5.55;;;3.90;;
65665;SDS011;52365;47.464;18.976;2023-05-10T02:20:50;6.22;;;3.50;;
65665;SDS011;52365;47.464;18.976;2023-05-10T02:21:14;4.85;;;3.50;;
65665;SDS011;52365;47.464;18.976;2023-05-10T02:21:38;5.55;;;3.67;;
65665;SDS011;52365;47.464;18.976;2023-05-10T02:22:00;5.18;;;3.85;;
65665;SDS011;52365;47.464;18.976;2023-05-10T02:22:23;5.22;;;3.53;;
65665;SDS011;52365;47.464;18.976;2023-05-10T02:22:47;4.87;;;3.78;;
65665;SDS011;52365;47.464;18.976;2023-05-10T02:23:09;5.35;;;3.87;;
65665;SDS011;52365;47.464;18.976;2023-05-10T02:23:31;4.80;;;3.78;;
65665;SDS011;52365;47.464;18.976;2023-05-10T02:23:53;5.15;;;3.70;;
65665;SDS011;52365;47.464;18.976;2023-05-10T02:24:15;5.75;;;3.85;;
65665;SDS011;52365;47.464;18.976;2023-05-10T02:24:37;7.60;;;3.80;;
65665;SDS011;52365;47.464;18.976;2023-05-10T02:25:00;7.50;;;3.60;;
65665;SDS011;52365;47.464;18.976;2023-05-10T02:25:22;5.60;;;3.40;;
65665;SDS011;52365;47.464;18.976;2023-05-10T02:25:45;4.90;;;3.87;;
65665;SDS011;52365;47.464;18.976;2023-05-10T02:26:08;5.40;;;3.97;;
65665;SDS011;52365;47.464;18.976;2023-05-10T02:26:31;4.80;;;3.70;;
65665;SDS011;52365;47.464;18.976;2023-05-10T02:26:54;5.35;;;3.60;;
65665;SDS011;52365;47.464;18.976;2023-05-10T02:27:17;5.72;;;3.70;;
65665;SDS011;52365;47.464;18.976;2023-05-10T02:27:40;4.97;;;3.60;;